sensor_id;sensor_type;location;lat;lon;timestamp;temperature;humidity
8248;DHT22;4164;49.844;8.830;2023-04-19T00:00:37;10.40;24.70
8248;DHT22;4164;49.844;8.830;2023-04-19T00:03:03;10.50;9.80
8248;DHT22;4164;49.844;8.830;2023-04-19T00:05:28;10.50;99.90
8248;DHT22;4164;49.844;8.830;2023-04-19T00:07:54;10.40;2.20
8248;DHT22;4164;49.844;8.830;2023-04-19T00:10:19;10.40;39.30
8248;DHT22;4164;49.844;8.830;2023-04-19T00:12:45;10.40;1.00
8248;DHT22;4164;49.844;8.830;2023-04-19T00:15:11;10.40;1.10
8248;DHT22;4164;49.844;8.830;2023-04-19T00:17:36;10.30;14.50
8248;DHT22;4164;49.844;8.830;2023-04-19T00:20:02;10.30;85.80
8248;DHT22;4164;49.844;8.830;2023-04-19T00:22:28;10.30;99.90
8248;DHT22;4164;49.844;8.830;2023-04-19T00:24:54;10.30;99.90
8248;DHT22;4164;49.844;8.830;2023-04-19T00:27:19;10.30;99.90
8248;DHT22;4164;49.844;8.830;2023-04-19T00:29:45;10.30;99.90
8248;DHT22;4164;49.844;8.830;2023-04-19T00:32:10;10.30;99.90
8248;DHT22;4164;49.844;8.830;2023-04-19T00:34:36;10.30;99.90
8248;DHT22;4164;49.844;8.830;2023-04-19T00:37:01;10.30;99.90
8248;DHT22;4164;49.844;8.830;2023-04-19T00:39:30;10.30;99.90
8248;DHT22;4164;49.844;8.830;2023-04-19T00:41:55;10.30;99.90
8248;DHT22;4164;49.844;8.830;2023-04-19T00:44:24;10.30;99.90
8248;DHT22;4164;49.844;8.830;2023-04-19T00:46:50;10.40;1.00
8248;DHT22;4164;49.844;8.830;2023-04-19T00:49:17;10.40;99.90
8248;DHT22;4164;49.844;8.830;2023-04-19T00:51:44;10.30;99.90
8248;DHT22;4164;49.844;8.830;2023-04-19T00:54:11;10.30;99.90
8248;DHT22;4164;49.844;8.830;2023-04-19T00:56:37;10.30;99.90
8248;DHT22;4164;49.844;8.830;2023-04-19T00:59:03;10.30;99.90
8248;DHT22;4164;49.844;8.830;2023-04-19T01:01:29;10.30;99.90
8248;DHT22;4164;49.844;8.830;2023-04-19T01:03:54;10.30;99.90
8248;DHT22;4164;49.844;8.830;2023-04-19T01:06:20;10.30;99.90
8248;DHT22;4164;49.844;8.830;2023-04-19T01:08:46;10.30;1.00
8248;DHT22;4164;49.844;8.830;2023-04-19T01:11:12;10.30;99.90
8248;DHT22;4164;49.844;8.830;2023-04-19T01:13:37;10.30;99.90
8248;DHT22;4164;49.844;8.830;2023-04-19T01:16:03;10.30;99.90
8248;DHT22;4164;49.844;8.830;2023-04-19T01:18:29;10.20;99.90
8248;DHT22;4164;49.844;8.830;2023-04-19T01:21:01;10.10;99.90
8248;DHT22;4164;49.844;8.830;2023-04-19T01:23:27;10.20;99.90
8248;DHT22;4164;49.844;8.830;2023-04-19T01:25:52;10.10;99.90
8248;DHT22;4164;49.844;8.830;2023-04-19T01:28:18;10.20;99.90
8248;DHT22;4164;49.844;8.830;2023-04-19T01:30:44;10.20;99.90
8248;DHT22;4164;49.844;8.830;2023-04-19T01:33:09;10.20;99.90
8248;DHT22;4164;49.844;8.830;2023-04-19T01:35:35;10.20;99.90
8248;DHT22;4164;49.844;8.830;2023-04-19T01:38:00;10.20;99.90
8248;DHT22;4164;49.844;8.830;2023-04-19T01:40:26;10.10;1.00
8248;DHT22;4164;49.844;8.830;2023-04-19T01:42:52;10.10;1.00
8248;DHT22;4164;49.844;8.830;2023-04-19T01:45:18;10.00;1.00
8248;DHT22;4164;49.844;8.830;2023-04-19T01:47:43;10.10;93.20
8248;DHT22;4164;49.844;8.830;2023-04-19T01:50:09;10.00;99.90
8248;DHT22;4164;49.844;8.830;2023-04-19T01:52:35;10.00;99.90
8248;DHT22;4164;49.844;8.830;2023-04-19T01:55:00;10.00;99.90
8248;DHT22;4164;49.844;8.830;2023-04-19T01:57:26;10.10;99.90
8248;DHT22;4164;49.844;8.830;2023-04-19T01:59:54;10.10;1.00
8248;DHT22;4164;49.844;8.830;2023-04-19T02:02:20;10.10;99.90
8248;DHT22;4164;49.844;8.830;2023-04-19T02:04:45;10.10;99.90
8248;DHT22;4164;49.844;8.830;2023-04-19T02:07:11;10.00;87.00
8248;DHT22;4164;49.844;8.830;2023-04-19T02:09:37;10.00;1.00
8248;DHT22;4164;49.844;8.830;2023-04-19T02:12:03;10.00;1.00
8248;DHT22;4164;49.844;8.830;2023-04-19T02:14:29;10.00;1.00
8248;DHT22;4164;49.844;8.830;2023-04-19T02:16:56;10.00;99.90
8248;DHT22;4164;49.844;8.830;2023-04-19T02:19:21;10.00;99.90
8248;DHT22;4164;49.844;8.830;2023-04-19T02:21:47;9.90;99.90
8248;DHT22;4164;49.844;8.830;2023-04-19T02:24:13;9.90;1.00
8248;DHT22;4164;49.844;8.830;2023-04-19T02:26:38;9.90;99.90
8248;DHT22;4164;49.844;8.830;2023-04-19T02:29:05;9.90;1.00
8248;DHT22;4164;49.844;8.830;2023-04-19T02:31:30;9.80;1.00
8248;DHT22;4164;49.844;8.830;2023-04-19T02:33:56;9.80;1.00
8248;DHT22;4164;49.844;8.830;2023-04-19T02:36:21;9.80;1.00
8248;DHT22;4164;49.844;8.830;2023-04-19T02:38:47;9.80;68.40
8248;DHT22;4164;49.844;8.830;2023-04-19T02:41:13;9.80;1.00
8248;DHT22;4164;49.844;8.830;2023-04-19T02:43:38;9.90;1.00
8248;DHT22;4164;49.844;8.830;2023-04-19T02:46:04;9.90;1.00
8248;DHT22;4164;49.844;8.830;2023-04-19T02:48:29;9.80;1.00
8248;DHT22;4164;49.844;8.830;2023-04-19T02:50:55;9.90;1.00
8248;DHT22;4164;49.844;8.830;2023-04-19T02:53:20;9.90;1.00
8248;DHT22;4164;49.844;8.830;2023-04-19T02:55:46;9.80;1.00
8248;DHT22;4164;49.844;8.830;2023-04-19T02:58:11;9.80;99.90
8248;DHT22;4164;49.844;8.830;2023-04-19T03:00:38;9.80;1.00
8248;DHT22;4164;49.844;8.830;2023-04-19T03:03:03;9.80;94.70
8248;DHT22;4164;49.844;8.830;2023-04-19T03:05:29;9.70;99.90
8248;DHT22;4164;49.844;8.830;2023-04-19T03:07:54;9.70;99.90
8248;DHT22;4164;49.844;8.830;2023-04-19T03:10:20;9.70;1.00
8248;DHT22;4164;49.844;8.830;2023-04-19T03:12:46;9.60;99.90
8248;DHT22;4164;49.844;8.830;2023-04-19T03:15:11;9.60;99.90
8248;DHT22;4164;49.844;8.830;2023-04-19T03:17:37;9.60;99.90
8248;DHT22;4164;49.844;8.830;2023-04-19T03:20:03;9.70;99.90
8248;DHT22;4164;49.844;8.830;2023-04-19T03:22:36;9.60;1.00
8248;DHT22;4164;49.844;8.830;2023-04-19T03:25:02;9.70;31.30
8248;DHT22;4164;49.844;8.830;2023-04-19T03:27:28;9.80;99.90
8248;DHT22;4164;49.844;8.830;2023-04-19T03:29:55;9.70;99.90
8248;DHT22;4164;49.844;8.830;2023-04-19T03:32:21;9.60;1.00
8248;DHT22;4164;49.844;8.830;2023-04-19T03:34:46;9.60;1.00
8248;DHT22;4164;49.844;8.830;2023-04-19T03:37:12;9.60;1.00
8248;DHT22;4164;49.844;8.830;2023-04-19T03:39:37;9.60;81.40
8248;DHT22;4164;49.844;8.830;2023-04-19T03:42:03;9.60;99.90
8248;DHT22;4164;49.844;8.830;2023-04-19T03:44:32;9.60;57.60
8248;DHT22;4164;49.844;8.830;2023-04-19T03:46:58;9.60;1.00
8248;DHT22;4164;49.844;8.830;2023-04-19T03:49:24;9.70;99.90
8248;DHT22;4164;49.844;8.830;2023-04-19T03:51:49;9.80;99.90
8248;DHT22;4164;49.844;8.830;2023-04-19T03:54:15;9.70;99.90
8248;DHT22;4164;49.844;8.830;2023-04-19T03:56:41;9.50;99.90
8248;DHT22;4164;49.844;8.830;2023-04-19T03:59:06;9.40;99.90
8248;DHT22;4164;49.844;8.830;2023-04-19T04:01:32;9.30;1.00
8248;DHT22;4164;49.844;8.830;2023-04-19T04:03:57;9.20;1.00
8248;DHT22;4164;49.844;8.830;2023-04-19T04:06:23;9.20;1.00
8248;DHT22;4164;49.844;8.830;2023-04-19T04:08:48;9.10;99.90
8248;DHT22;4164;49.844;8.830;2023-04-19T04:11:14;9.20;99.90
8248;DHT22;4164;49.844;8.830;2023-04-19T04:13:39;9.10;99.90
8248;DHT22;4164;49.844;8.830;2023-04-19T04:16:05;9.00;1.00
8248;DHT22;4164;49.844;8.830;2023-04-19T04:18:31;9.00;1.00
8248;DHT22;4164;49.844;8.830;2023-04-19T04:20:56;9.10;1.00
8248;DHT22;4164;49.844;8.830;2023-04-19T04:23:22;9.20;1.00
8248;DHT22;4164;49.844;8.830;2023-04-19T04:25:56;9.10;99.90
8248;DHT22;4164;49.844;8.830;2023-04-19T04:28:23;9.00;1.00
8248;DHT22;4164;49.844;8.830;2023-04-19T04:30:49;9.10;99.90
8248;DHT22;4164;49.844;8.830;2023-04-19T04:33:16;9.10;99.90
8248;DHT22;4164;49.844;8.830;2023-04-19T04:35:42;9.10;99.90
8248;DHT22;4164;49.844;8.830;2023-04-19T04:38:07;9.10;99.90
8248;DHT22;4164;49.844;8.830;2023-04-19T04:40:33;9.20;99.90
8248;DHT22;4164;49.844;8.830;2023-04-19T04:42:59;9.10;99.90
8248;DHT22;4164;49.844;8.830;2023-04-19T04:45:28;9.10;99.90
8248;DHT22;4164;49.844;8.830;2023-04-19T04:47:54;9.10;99.90
8248;DHT22;4164;49.844;8.830;2023-04-19T04:50:19;9.20;99.90
8248;DHT22;4164;49.844;8.830;2023-04-19T04:52:45;9.10;99.90
8248;DHT22;4164;49.844;8.830;2023-04-19T04:55:10;9.00;99.90
8248;DHT22;4164;49.844;8.830;2023-04-19T04:57:36;9.00;99.90
8248;DHT22;4164;49.844;8.830;2023-04-19T05:00:02;9.10;1.00
8248;DHT22;4164;49.844;8.830;2023-04-19T05:02:29;9.30;1.00
8248;DHT22;4164;49.844;8.830;2023-04-19T05:04:55;9.30;1.00
8248;DHT22;4164;49.844;8.830;2023-04-19T05:07:21;9.30;1.00
8248;DHT22;4164;49.844;8.830;2023-04-19T05:09:46;9.40;99.90
8248;DHT22;4164;49.844;8.830;2023-04-19T05:12:12;9.50;1.00
8248;DHT22;4164;49.844;8.830;2023-04-19T05:14:38;9.60;1.00
8248;DHT22;4164;49.844;8.830;2023-04-19T05:17:03;9.60;99.90
8248;DHT22;4164;49.844;8.830;2023-04-19T05:19:29;9.70;99.90
8248;DHT22;4164;49.844;8.830;2023-04-19T05:21:55;9.80;99.90
8248;DHT22;4164;49.844;8.830;2023-04-19T05:24:20;9.80;99.90
8248;DHT22;4164;49.844;8.830;2023-04-19T05:26:46;9.80;1.00
8248;DHT22;4164;49.844;8.830;2023-04-19T05:29:11;9.80;1.00
8248;DHT22;4164;49.844;8.830;2023-04-19T05:31:37;9.90;99.90
8248;DHT22;4164;49.844;8.830;2023-04-19T05:34:02;9.90;99.90
8248;DHT22;4164;49.844;8.830;2023-04-19T05:36:28;9.90;1.00
8248;DHT22;4164;49.844;8.830;2023-04-19T05:38:53;10.00;1.00
8248;DHT22;4164;49.844;8.830;2023-04-19T05:41:19;10.00;99.90
8248;DHT22;4164;49.844;8.830;2023-04-19T05:43:45;10.00;99.90
8248;DHT22;4164;49.844;8.830;2023-04-19T05:46:10;10.10;99.90
8248;DHT22;4164;49.844;8.830;2023-04-19T05:48:36;10.20;99.90
8248;DHT22;4164;49.844;8.830;2023-04-19T05:51:02;10.20;87.20
8248;DHT22;4164;49.844;8.830;2023-04-19T05:53:28;10.30;1.00
8248;DHT22;4164;49.844;8.830;2023-04-19T05:55:53;10.30;1.00
8248;DHT22;4164;49.844;8.830;2023-04-19T05:58:19;10.40;1.00
8248;DHT22;4164;49.844;8.830;2023-04-19T06:00:45;10.50;1.00
8248;DHT22;4164;49.844;8.830;2023-04-19T06:03:10;10.50;1.00
8248;DHT22;4164;49.844;8.830;2023-04-19T06:05:36;10.50;1.00
8248;DHT22;4164;49.844;8.830;2023-04-19T06:08:02;10.50;1.00
8248;DHT22;4164;49.844;8.830;2023-04-19T06:10:27;10.50;1.00
8248;DHT22;4164;49.844;8.830;2023-04-19T06:12:53;10.50;1.00
8248;DHT22;4164;49.844;8.830;2023-04-19T06:15:18;10.60;1.00
8248;DHT22;4164;49.844;8.830;2023-04-19T06:17:45;10.60;99.90
8248;DHT22;4164;49.844;8.830;2023-04-19T06:20:10;10.70;99.90
8248;DHT22;4164;49.844;8.830;2023-04-19T06:22:44;10.90;1.00
8248;DHT22;4164;49.844;8.830;2023-04-19T06:25:09;11.20;99.90
8248;DHT22;4164;49.844;8.830;2023-04-19T06:27:35;11.50;1.00
8248;DHT22;4164;49.844;8.830;2023-04-19T06:30:01;11.70;13.00
8248;DHT22;4164;49.844;8.830;2023-04-19T06:32:27;11.80;1.00
8248;DHT22;4164;49.844;8.830;2023-04-19T06:34:52;11.80;1.00
8248;DHT22;4164;49.844;8.830;2023-04-19T06:37:18;11.70;1.00
8248;DHT22;4164;49.844;8.830;2023-04-19T06:39:43;11.70;1.00
8248;DHT22;4164;49.844;8.830;2023-04-19T06:42:09;11.70;1.00
8248;DHT22;4164;49.844;8.830;2023-04-19T06:44:34;11.50;99.90
8248;DHT22;4164;49.844;8.830;2023-04-19T06:47:00;11.40;99.90
8248;DHT22;4164;49.844;8.830;2023-04-19T06:49:25;11.30;99.90
8248;DHT22;4164;49.844;8.830;2023-04-19T06:51:51;11.20;99.90
8248;DHT22;4164;49.844;8.830;2023-04-19T06:54:17;11.20;1.00
8248;DHT22;4164;49.844;8.830;2023-04-19T06:56:44;11.30;99.90
8248;DHT22;4164;49.844;8.830;2023-04-19T06:59:14;11.20;65.40
8248;DHT22;4164;49.844;8.830;2023-04-19T07:01:41;11.20;11.70
8248;DHT22;4164;49.844;8.830;2023-04-19T07:04:07;11.40;1.00
8248;DHT22;4164;49.844;8.830;2023-04-19T07:06:36;11.70;1.00
8248;DHT22;4164;49.844;8.830;2023-04-19T07:09:03;11.80;99.90
8248;DHT22;4164;49.844;8.830;2023-04-19T07:11:29;11.70;99.90
8248;DHT22;4164;49.844;8.830;2023-04-19T07:13:55;11.80;99.90
8248;DHT22;4164;49.844;8.830;2023-04-19T07:16:21;11.80;99.90
8248;DHT22;4164;49.844;8.830;2023-04-19T07:18:47;12.00;99.90
8248;DHT22;4164;49.844;8.830;2023-04-19T07:21:12;12.00;99.90
8248;DHT22;4164;49.844;8.830;2023-04-19T07:23:38;12.10;99.90
8248;DHT22;4164;49.844;8.830;2023-04-19T07:26:03;12.30;99.90
8248;DHT22;4164;49.844;8.830;2023-04-19T07:28:29;12.50;99.90
8248;DHT22;4164;49.844;8.830;2023-04-19T07:30:55;12.40;22.40
8248;DHT22;4164;49.844;8.830;2023-04-19T07:33:22;12.40;13.30
8248;DHT22;4164;49.844;8.830;2023-04-19T07:35:48;12.50;9.10
8248;DHT22;4164;49.844;8.830;2023-04-19T07:38:13;12.50;1.00
8248;DHT22;4164;49.844;8.830;2023-04-19T07:40:39;12.50;1.00
8248;DHT22;4164;49.844;8.830;2023-04-19T07:43:04;12.40;1.00
8248;DHT22;4164;49.844;8.830;2023-04-19T07:45:31;12.30;1.00
8248;DHT22;4164;49.844;8.830;2023-04-19T07:47:56;12.20;1.00
8248;DHT22;4164;49.844;8.830;2023-04-19T07:50:24;12.00;1.00
8248;DHT22;4164;49.844;8.830;2023-04-19T07:52:51;12.10;1.00
8248;DHT22;4164;49.844;8.830;2023-04-19T07:55:16;12.20;1.00
8248;DHT22;4164;49.844;8.830;2023-04-19T07:57:42;12.30;1.00
8248;DHT22;4164;49.844;8.830;2023-04-19T08:00:21;12.40;1.00
8248;DHT22;4164;49.844;8.830;2023-04-19T08:02:48;12.30;1.00
8248;DHT22;4164;49.844;8.830;2023-04-19T08:05:14;12.30;1.00
8248;DHT22;4164;49.844;8.830;2023-04-19T08:07:42;12.10;1.00
8248;DHT22;4164;49.844;8.830;2023-04-19T08:10:08;12.10;1.00
8248;DHT22;4164;49.844;8.830;2023-04-19T08:12:34;12.10;1.00
8248;DHT22;4164;49.844;8.830;2023-04-19T08:15:01;12.00;1.00
8248;DHT22;4164;49.844;8.830;2023-04-19T08:17:26;11.90;1.00
8248;DHT22;4164;49.844;8.830;2023-04-19T08:19:52;11.90;1.00
8248;DHT22;4164;49.844;8.830;2023-04-19T08:22:19;12.00;1.00
8248;DHT22;4164;49.844;8.830;2023-04-19T08:24:44;12.20;1.00
8248;DHT22;4164;49.844;8.830;2023-04-19T08:27:10;12.40;1.00
8248;DHT22;4164;49.844;8.830;2023-04-19T08:29:36;12.50;1.00
8248;DHT22;4164;49.844;8.830;2023-04-19T08:32:04;12.80;1.00
8248;DHT22;4164;49.844;8.830;2023-04-19T08:34:29;13.20;1.00
8248;DHT22;4164;49.844;8.830;2023-04-19T08:36:55;13.30;1.00
8248;DHT22;4164;49.844;8.830;2023-04-19T08:39:21;13.30;1.00
8248;DHT22;4164;49.844;8.830;2023-04-19T08:41:47;13.40;1.00
8248;DHT22;4164;49.844;8.830;2023-04-19T08:44:13;13.40;1.00
8248;DHT22;4164;49.844;8.830;2023-04-19T08:46:41;13.50;1.00
8248;DHT22;4164;49.844;8.830;2023-04-19T08:49:08;13.80;99.90
8248;DHT22;4164;49.844;8.830;2023-04-19T08:51:35;13.70;99.90
8248;DHT22;4164;49.844;8.830;2023-04-19T08:54:03;13.30;99.90
8248;DHT22;4164;49.844;8.830;2023-04-19T08:56:30;13.40;99.90
8248;DHT22;4164;49.844;8.830;2023-04-19T08:58:55;13.50;99.90
8248;DHT22;4164;49.844;8.830;2023-04-19T09:01:21;13.20;99.90
8248;DHT22;4164;49.844;8.830;2023-04-19T09:03:46;13.10;99.90
8248;DHT22;4164;49.844;8.830;2023-04-19T09:06:12;13.20;99.90
8248;DHT22;4164;49.844;8.830;2023-04-19T09:08:38;13.50;99.90
8248;DHT22;4164;49.844;8.830;2023-04-19T09:11:05;13.90;99.90
8248;DHT22;4164;49.844;8.830;2023-04-19T09:13:31;14.10;99.90
8248;DHT22;4164;49.844;8.830;2023-04-19T09:15:57;13.80;99.90
8248;DHT22;4164;49.844;8.830;2023-04-19T09:18:25;14.00;99.90
8248;DHT22;4164;49.844;8.830;2023-04-19T09:20:51;14.30;99.90
8248;DHT22;4164;49.844;8.830;2023-04-19T09:23:23;15.00;99.90
8248;DHT22;4164;49.844;8.830;2023-04-19T09:25:57;15.20;99.90
8248;DHT22;4164;49.844;8.830;2023-04-19T09:28:30;15.60;99.90
8248;DHT22;4164;49.844;8.830;2023-04-19T09:30:56;15.70;99.90
8248;DHT22;4164;49.844;8.830;2023-04-19T09:33:31;15.30;99.90
8248;DHT22;4164;49.844;8.830;2023-04-19T09:35:58;14.80;99.90
8248;DHT22;4164;49.844;8.830;2023-04-19T09:38:24;14.60;99.90
8248;DHT22;4164;49.844;8.830;2023-04-19T09:40:49;14.60;99.90
8248;DHT22;4164;49.844;8.830;2023-04-19T09:43:24;15.20;99.90
8248;DHT22;4164;49.844;8.830;2023-04-19T09:45:50;15.40;99.90
8248;DHT22;4164;49.844;8.830;2023-04-19T09:48:16;15.20;99.90
8248;DHT22;4164;49.844;8.830;2023-04-19T09:50:52;15.60;99.90
8248;DHT22;4164;49.844;8.830;2023-04-19T09:53:19;15.80;99.90
8248;DHT22;4164;49.844;8.830;2023-04-19T09:55:45;16.40;99.90
8248;DHT22;4164;49.844;8.830;2023-04-19T09:58:14;16.70;99.90
8248;DHT22;4164;49.844;8.830;2023-04-19T10:00:45;17.20;99.90
8248;DHT22;4164;49.844;8.830;2023-04-19T10:03:15;17.60;99.90
8248;DHT22;4164;49.844;8.830;2023-04-19T10:05:42;18.10;99.90
8248;DHT22;4164;49.844;8.830;2023-04-19T10:08:10;18.00;99.90
8248;DHT22;4164;49.844;8.830;2023-04-19T10:10:38;18.10;99.90
8248;DHT22;4164;49.844;8.830;2023-04-19T10:13:07;18.00;99.90
8248;DHT22;4164;49.844;8.830;2023-04-19T10:15:35;18.00;99.90
8248;DHT22;4164;49.844;8.830;2023-04-19T10:18:01;17.60;99.90
8248;DHT22;4164;49.844;8.830;2023-04-19T10:20:45;16.90;99.90
8248;DHT22;4164;49.844;8.830;2023-04-19T10:23:14;16.20;99.90
8248;DHT22;4164;49.844;8.830;2023-04-19T10:25:39;16.00;99.90
8248;DHT22;4164;49.844;8.830;2023-04-19T10:28:09;15.70;99.90
8248;DHT22;4164;49.844;8.830;2023-04-19T10:30:35;15.60;99.90
8248;DHT22;4164;49.844;8.830;2023-04-19T10:33:01;16.10;99.90
8248;DHT22;4164;49.844;8.830;2023-04-19T10:35:34;16.60;99.90
8248;DHT22;4164;49.844;8.830;2023-04-19T10:38:12;17.20;99.90
8248;DHT22;4164;49.844;8.830;2023-04-19T10:43:31;17.10;99.90
8248;DHT22;4164;49.844;8.830;2023-04-19T10:49:00;17.10;99.90
8248;DHT22;4164;49.844;8.830;2023-04-19T10:51:37;17.50;99.90
8248;DHT22;4164;49.844;8.830;2023-04-19T10:56:59;17.10;99.90
8248;DHT22;4164;49.844;8.830;2023-04-19T10:59:28;16.60;99.90
8248;DHT22;4164;49.844;8.830;2023-04-19T11:01:59;16.90;99.90
8248;DHT22;4164;49.844;8.830;2023-04-19T11:06:58;18.90;99.90
8248;DHT22;4164;49.844;8.830;2023-04-19T11:09:35;20.90;99.90
8248;DHT22;4164;49.844;8.830;2023-04-19T11:12:02;22.70;99.90
8248;DHT22;4164;49.844;8.830;2023-04-19T11:14:34;23.40;99.90
8248;DHT22;4164;49.844;8.830;2023-04-19T11:17:03;25.00;99.90
8248;DHT22;4164;49.844;8.830;2023-04-19T11:19:37;24.10;99.90
8248;DHT22;4164;49.844;8.830;2023-04-19T11:22:03;22.70;99.90
8248;DHT22;4164;49.844;8.830;2023-04-19T11:24:28;23.90;99.90
8248;DHT22;4164;49.844;8.830;2023-04-19T11:26:55;24.80;99.90
8248;DHT22;4164;49.844;8.830;2023-04-19T11:29:22;25.70;99.90
8248;DHT22;4164;49.844;8.830;2023-04-19T11:31:48;26.60;99.20
8248;DHT22;4164;49.844;8.830;2023-04-19T11:34:14;26.40;92.80
8248;DHT22;4164;49.844;8.830;2023-04-19T11:36:52;27.00;90.40
8248;DHT22;4164;49.844;8.830;2023-04-19T11:39:18;27.10;81.80
8248;DHT22;4164;49.844;8.830;2023-04-19T11:41:43;27.90;72.90
8248;DHT22;4164;49.844;8.830;2023-04-19T11:44:18;27.90;60.80
8248;DHT22;4164;49.844;8.830;2023-04-19T11:47:01;27.30;54.30
8248;DHT22;4164;49.844;8.830;2023-04-19T11:49:31;26.50;50.50
8248;DHT22;4164;49.844;8.830;2023-04-19T11:52:01;26.20;44.90
8248;DHT22;4164;49.844;8.830;2023-04-19T11:54:29;25.60;40.10
8248;DHT22;4164;49.844;8.830;2023-04-19T11:57:06;25.40;37.70
8248;DHT22;4164;49.844;8.830;2023-04-19T11:59:33;25.60;34.90
8248;DHT22;4164;49.844;8.830;2023-04-19T12:02:10;26.30;35.40
8248;DHT22;4164;49.844;8.830;2023-04-19T12:04:37;25.50;26.90
8248;DHT22;4164;49.844;8.830;2023-04-19T12:07:04;25.80;26.80
8248;DHT22;4164;49.844;8.830;2023-04-19T12:09:35;26.80;28.20
8248;DHT22;4164;49.844;8.830;2023-04-19T12:12:01;27.50;24.90
8248;DHT22;4164;49.844;8.830;2023-04-19T12:14:28;28.90;23.40
8248;DHT22;4164;49.844;8.830;2023-04-19T12:17:11;30.60;21.40
8248;DHT22;4164;49.844;8.830;2023-04-19T12:19:45;28.30;10.90
8248;DHT22;4164;49.844;8.830;2023-04-19T12:22:16;27.50;6.10
8248;DHT22;4164;49.844;8.830;2023-04-19T12:24:44;26.30;2.30
8248;DHT22;4164;49.844;8.830;2023-04-19T12:27:10;26.80;4.10
8248;DHT22;4164;49.844;8.830;2023-04-19T12:29:36;27.90;3.50
8248;DHT22;4164;49.844;8.830;2023-04-19T12:32:02;28.00;1.00
8248;DHT22;4164;49.844;8.830;2023-04-19T12:34:28;27.90;1.00
8248;DHT22;4164;49.844;8.830;2023-04-19T12:36:54;27.10;1.00
8248;DHT22;4164;49.844;8.830;2023-04-19T12:39:20;26.60;1.00
8248;DHT22;4164;49.844;8.830;2023-04-19T12:41:45;27.40;1.00
8248;DHT22;4164;49.844;8.830;2023-04-19T12:44:15;27.10;1.00
8248;DHT22;4164;49.844;8.830;2023-04-19T12:46:40;27.20;1.00
8248;DHT22;4164;49.844;8.830;2023-04-19T12:49:06;27.30;1.00
8248;DHT22;4164;49.844;8.830;2023-04-19T12:51:32;27.60;1.00
8248;DHT22;4164;49.844;8.830;2023-04-19T12:53:58;27.00;1.00
8248;DHT22;4164;49.844;8.830;2023-04-19T12:56:24;26.60;1.00
8248;DHT22;4164;49.844;8.830;2023-04-19T12:58:49;26.80;1.00
8248;DHT22;4164;49.844;8.830;2023-04-19T13:01:15;26.40;1.00
8248;DHT22;4164;49.844;8.830;2023-04-19T13:03:41;27.10;1.00
8248;DHT22;4164;49.844;8.830;2023-04-19T13:06:06;27.00;1.00
8248;DHT22;4164;49.844;8.830;2023-04-19T13:08:35;27.50;1.00
8248;DHT22;4164;49.844;8.830;2023-04-19T13:11:02;27.50;1.00
8248;DHT22;4164;49.844;8.830;2023-04-19T13:13:28;28.70;1.00
8248;DHT22;4164;49.844;8.830;2023-04-19T13:15:54;28.50;1.00
8248;DHT22;4164;49.844;8.830;2023-04-19T13:18:19;28.00;1.00
8248;DHT22;4164;49.844;8.830;2023-04-19T13:20:45;27.30;1.00
8248;DHT22;4164;49.844;8.830;2023-04-19T13:23:11;26.20;1.00
8248;DHT22;4164;49.844;8.830;2023-04-19T13:25:36;26.40;1.00
8248;DHT22;4164;49.844;8.830;2023-04-19T13:28:02;26.40;1.00
8248;DHT22;4164;49.844;8.830;2023-04-19T13:30:28;26.10;1.00
8248;DHT22;4164;49.844;8.830;2023-04-19T13:32:53;26.70;1.00
8248;DHT22;4164;49.844;8.830;2023-04-19T13:35:19;27.20;1.00
8248;DHT22;4164;49.844;8.830;2023-04-19T13:37:45;26.60;1.00
8248;DHT22;4164;49.844;8.830;2023-04-19T13:40:12;26.00;1.00
8248;DHT22;4164;49.844;8.830;2023-04-19T13:42:37;26.20;1.00
8248;DHT22;4164;49.844;8.830;2023-04-19T13:45:03;27.00;1.00
8248;DHT22;4164;49.844;8.830;2023-04-19T13:47:29;25.90;1.00
8248;DHT22;4164;49.844;8.830;2023-04-19T13:49:54;25.80;1.00
8248;DHT22;4164;49.844;8.830;2023-04-19T13:52:20;24.60;1.00
8248;DHT22;4164;49.844;8.830;2023-04-19T13:54:48;24.80;1.00
8248;DHT22;4164;49.844;8.830;2023-04-19T13:57:14;25.00;1.00
8248;DHT22;4164;49.844;8.830;2023-04-19T13:59:39;26.00;1.00
8248;DHT22;4164;49.844;8.830;2023-04-19T14:02:05;26.70;1.00
8248;DHT22;4164;49.844;8.830;2023-04-19T14:04:31;26.60;1.00
8248;DHT22;4164;49.844;8.830;2023-04-19T14:06:57;25.70;1.00
8248;DHT22;4164;49.844;8.830;2023-04-19T14:09:22;25.70;1.00
8248;DHT22;4164;49.844;8.830;2023-04-19T14:11:48;26.50;1.00
8248;DHT22;4164;49.844;8.830;2023-04-19T14:14:14;27.60;1.00
8248;DHT22;4164;49.844;8.830;2023-04-19T14:16:40;26.80;1.00
8248;DHT22;4164;49.844;8.830;2023-04-19T14:19:05;26.00;1.00
8248;DHT22;4164;49.844;8.830;2023-04-19T14:21:31;26.50;1.00
8248;DHT22;4164;49.844;8.830;2023-04-19T14:23:57;25.30;1.00
8248;DHT22;4164;49.844;8.830;2023-04-19T14:26:22;25.00;1.00
8248;DHT22;4164;49.844;8.830;2023-04-19T14:28:48;24.20;1.00
8248;DHT22;4164;49.844;8.830;2023-04-19T14:31:13;24.30;1.00
8248;DHT22;4164;49.844;8.830;2023-04-19T14:33:39;23.80;1.00
8248;DHT22;4164;49.844;8.830;2023-04-19T14:36:05;22.30;1.00
8248;DHT22;4164;49.844;8.830;2023-04-19T14:38:31;20.50;1.00
8248;DHT22;4164;49.844;8.830;2023-04-19T14:40:57;19.40;1.00
8248;DHT22;4164;49.844;8.830;2023-04-19T14:43:23;18.40;1.00
8248;DHT22;4164;49.844;8.830;2023-04-19T14:45:50;17.30;1.00
8248;DHT22;4164;49.844;8.830;2023-04-19T14:48:16;17.00;1.00
8248;DHT22;4164;49.844;8.830;2023-04-19T14:50:41;16.60;1.00
8248;DHT22;4164;49.844;8.830;2023-04-19T14:53:07;16.40;1.00
8248;DHT22;4164;49.844;8.830;2023-04-19T14:55:33;16.20;1.00
8248;DHT22;4164;49.844;8.830;2023-04-19T14:57:59;16.20;1.00
8248;DHT22;4164;49.844;8.830;2023-04-19T15:00:24;16.10;1.00
8248;DHT22;4164;49.844;8.830;2023-04-19T15:02:54;15.80;1.00
8248;DHT22;4164;49.844;8.830;2023-04-19T15:05:25;15.70;1.00
8248;DHT22;4164;49.844;8.830;2023-04-19T15:07:56;15.60;1.00
8248;DHT22;4164;49.844;8.830;2023-04-19T15:10:22;15.40;1.00
8248;DHT22;4164;49.844;8.830;2023-04-19T15:12:47;15.20;1.00
8248;DHT22;4164;49.844;8.830;2023-04-19T15:15:13;15.00;1.00
8248;DHT22;4164;49.844;8.830;2023-04-19T15:17:38;15.10;1.00
8248;DHT22;4164;49.844;8.830;2023-04-19T15:20:05;15.00;1.00
8248;DHT22;4164;49.844;8.830;2023-04-19T15:22:34;15.20;1.00
8248;DHT22;4164;49.844;8.830;2023-04-19T15:25:00;15.10;1.00
8248;DHT22;4164;49.844;8.830;2023-04-19T15:27:26;15.10;1.00
8248;DHT22;4164;49.844;8.830;2023-04-19T15:29:52;14.90;1.00
8248;DHT22;4164;49.844;8.830;2023-04-19T15:32:18;14.90;1.00
8248;DHT22;4164;49.844;8.830;2023-04-19T15:34:43;14.80;1.00
8248;DHT22;4164;49.844;8.830;2023-04-19T15:37:09;14.70;1.00
8248;DHT22;4164;49.844;8.830;2023-04-19T15:39:34;14.70;1.00
8248;DHT22;4164;49.844;8.830;2023-04-19T15:42:00;14.60;1.00
8248;DHT22;4164;49.844;8.830;2023-04-19T15:44:26;14.60;1.00
8248;DHT22;4164;49.844;8.830;2023-04-19T15:46:52;14.60;1.00
8248;DHT22;4164;49.844;8.830;2023-04-19T15:49:17;14.60;1.00
8248;DHT22;4164;49.844;8.830;2023-04-19T15:51:43;14.50;1.00
8248;DHT22;4164;49.844;8.830;2023-04-19T15:54:09;14.40;1.00
8248;DHT22;4164;49.844;8.830;2023-04-19T15:56:35;14.40;1.00
8248;DHT22;4164;49.844;8.830;2023-04-19T15:59:01;14.40;1.00
8248;DHT22;4164;49.844;8.830;2023-04-19T16:01:26;14.40;1.00
8248;DHT22;4164;49.844;8.830;2023-04-19T16:03:52;14.40;1.00
8248;DHT22;4164;49.844;8.830;2023-04-19T16:06:18;14.20;1.00
8248;DHT22;4164;49.844;8.830;2023-04-19T16:08:43;14.20;1.00
8248;DHT22;4164;49.844;8.830;2023-04-19T16:11:09;14.10;1.00
8248;DHT22;4164;49.844;8.830;2023-04-19T16:13:34;14.10;1.00
8248;DHT22;4164;49.844;8.830;2023-04-19T16:16:00;14.10;1.00
8248;DHT22;4164;49.844;8.830;2023-04-19T16:18:26;14.10;1.00